Time;durP1;ratioP1;P1;durP2;ratioP2;P2;SDS_P1;SDS_P2;PMS_P1;PMS_P2;Temp;Humidity;BMP_temperature;BMP_pressure;BME280_temperature;BME280_humidity;BME280_pressure;Samples;Min_cycle;Max_cycle;Signal;HPM_P1;HPM_P2
2021/12/14 00:01:37;;;;;;;27.73;11.55;;;8.30;99.90;;;;;;5140052;27;20126;-74
2021/12/14 00:04:16;;;;;;;25.25;11.73;;;8.30;99.90;;;;;;5133846;27;20050;-73
2021/12/14 00:06:43;;;;;;;27.15;12.25;;;8.30;99.90;;;;;;5118269;27;20099;-74
2021/12/14 00:09:21;;;;;;;28.75;12.90;;;8.30;99.90;;;;;;5135349;27;20165;-77
2021/12/14 00:11:55;;;;;;;33.50;13.43;;;8.30;99.90;;;;;;5150096;27;20111;-74
2021/12/14 00:17:07;;;;;;;31.88;12.52;;;8.30;99.90;;;;;;5094822;28;20074;-73
2021/12/14 00:19:34;;;;;;;33.53;13.38;;;8.30;99.90;;;;;;5094196;28;20054;-75
2021/12/14 00:22:17;;;;;;;31.53;13.03;;;8.30;99.90;;;;;;5104989;27;20047;-75
2021/12/14 00:24:43;;;;;;;28.77;12.60;;;8.30;99.90;;;;;;5135293;27;20057;-76
2021/12/14 00:27:11;;;;;;;29.13;13.90;;;8.40;99.90;;;;;;5107886;27;20047;-74
2021/12/14 00:29:45;;;;;;;32.35;14.40;;;8.40;99.90;;;;;;5081662;27;20043;-76
2021/12/14 00:32:18;;;;;;;29.60;13.20;;;8.40;99.90;;;;;;5133360;27;20039;-78
2021/12/14 00:34:47;;;;;;;31.83;13.57;;;8.30;99.90;;;;;;5153909;27;20045;-74
2021/12/14 00:37:18;;;;;;;28.02;11.93;;;8.30;99.90;;;;;;5152616;27;20053;-78
2021/12/14 00:39:44;;;;;;;29.70;13.68;;;8.40;99.90;;;;;;5133542;27;20055;-75
2021/12/14 00:42:10;;;;;;;31.70;13.65;;;8.40;99.90;;;;;;5139939;27;20554;-75
2021/12/14 00:44:36;;;;;;;33.87;14.17;;;8.30;99.90;;;;;;5133456;27;20097;-75
2021/12/14 00:47:03;;;;;;;31.23;13.75;;;8.40;99.90;;;;;;5142976;27;20123;-74
2021/12/14 00:49:30;;;;;;;30.08;13.95;;;8.40;99.90;;;;;;5133469;27;20035;-76
2021/12/14 00:51:57;;;;;;;27.65;13.00;;;8.30;99.90;;;;;;5112043;28;20083;-75
2021/12/14 00:54:24;;;;;;;32.92;14.35;;;8.30;99.90;;;;;;5089523;27;20051;-75
2021/12/14 00:56:50;;;;;;;;;;;8.30;99.90;;;;;;5096870;27;20094;-76
2021/12/14 00:59:17;;;;;;;31.97;13.63;;;8.30;99.90;;;;;;5131948;27;19924;-75
2021/12/14 01:02:00;;;;;;;36.38;15.80;;;8.30;99.90;;;;;;5141469;27;20060;-75
2021/12/14 01:04:32;;;;;;;34.55;14.90;;;8.30;99.90;;;;;;5150502;27;20103;-75
2021/12/14 01:06:59;;;;;;;31.33;13.70;;;8.30;99.90;;;;;;5134383;27;20057;-74
2021/12/14 01:09:29;;;;;;;32.60;14.95;;;8.30;99.90;;;;;;5143406;27;20066;-75
2021/12/14 01:12:01;;;;;;;31.10;14.25;;;8.30;99.90;;;;;;5113124;27;20050;-75
2021/12/14 01:14:40;;;;;;;32.88;13.95;;;8.30;99.90;;;;;;5103294;27;20106;-75
2021/12/14 01:17:25;;;;;;;32.25;14.20;;;8.30;99.90;;;;;;5139653;27;20122;-76
2021/12/14 01:19:56;;;;;;;34.67;13.80;;;8.30;99.90;;;;;;5096699;27;20111;-75
2021/12/14 01:25:17;;;;;;;33.88;14.35;;;8.30;99.90;;;;;;5140738;27;20488;-74
2021/12/14 01:27:55;;;;;;;33.10;14.25;;;8.30;99.90;;;;;;5126750;27;20055;-74
2021/12/14 01:30:41;;;;;;;37.42;13.82;;;8.30;99.90;;;;;;5110815;28;20058;-74
2021/12/14 01:33:12;;;;;;;32.70;14.13;;;8.20;99.90;;;;;;5103154;27;20034;-75
2021/12/14 01:35:41;;;;;;;32.58;14.02;;;8.30;99.90;;;;;;5150963;27;20074;-74
2021/12/14 01:38:21;;;;;;;35.30;13.88;;;8.30;99.90;;;;;;5128860;27;20052;-75
2021/12/14 01:40:55;;;;;;;35.70;14.80;;;8.30;99.90;;;;;;5109790;28;20470;-78
2021/12/14 01:43:45;;;;;;;33.45;13.85;;;8.20;99.90;;;;;;5110792;28;20047;-73
2021/12/14 01:46:27;;;;;;;32.28;13.52;;;8.30;99.90;;;;;;5121236;27;20085;-74
2021/12/14 01:48:54;;;;;;;35.22;15.05;;;8.30;99.90;;;;;;5138599;27;20039;-74
2021/12/14 01:51:21;;;;;;;29.85;12.00;;;8.30;99.90;;;;;;5112592;28;20043;-75
2021/12/14 01:53:48;;;;;;;;;;;8.30;99.90;;;;;;5132407;28;20118;-73
2021/12/14 01:56:15;;;;;;;;;;;8.30;99.90;;;;;;5141091;27;19919;-73
2021/12/14 01:58:55;;;;;;;36.53;13.57;;;8.30;99.90;;;;;;5132943;27;20374;-75
2021/12/14 02:01:34;;;;;;;37.30;14.55;;;8.30;99.90;;;;;;5132988;27;20129;-76
2021/12/14 02:04:12;;;;;;;37.30;15.32;;;8.30;99.90;;;;;;5135199;27;20074;-74
2021/12/14 02:06:38;;;;;;;43.47;15.10;;;8.30;99.90;;;;;;5117921;28;20047;-74
2021/12/14 02:09:15;;;;;;;41.03;16.52;;;8.30;99.90;;;;;;5119888;27;20065;-75
2021/12/14 02:11:52;;;;;;;39.88;16.90;;;8.30;99.90;;;;;;5126157;27;20459;-74
2021/12/14 02:14:19;;;;;;;40.47;16.92;;;8.30;99.90;;;;;;5126917;28;20471;-78
2021/12/14 02:16:47;;;;;;;;;;;8.30;99.90;;;;;;5111616;28;20094;-75
2021/12/14 02:19:15;;;;;;;41.13;16.13;;;8.30;99.90;;;;;;5094131;28;20010;-74
2021/12/14 02:21:44;;;;;;;43.70;16.42;;;8.20;99.90;;;;;;5078244;28;20101;-73
2021/12/14 02:24:11;;;;;;;37.15;15.20;;;8.30;99.90;;;;;;5113089;28;20086;-73
2021/12/14 02:26:40;;;;;;;42.63;16.05;;;8.30;99.90;;;;;;5112526;28;20122;-73
2021/12/14 02:29:09;;;;;;;43.78;17.48;;;8.30;99.90;;;;;;5095048;28;20127;-74
2021/12/14 02:31:39;;;;;;;37.78;16.02;;;8.30;99.90;;;;;;5094712;28;20104;-74
2021/12/14 02:34:08;;;;;;;42.47;16.80;;;8.30;99.90;;;;;;5113051;28;20040;-74
2021/12/14 02:36:39;;;;;;;38.88;16.75;;;8.30;99.90;;;;;;5112740;28;20116;-74
2021/12/14 02:39:11;;;;;;;42.80;16.98;;;8.20;99.90;;;;;;5094015;28;20087;-74
2021/12/14 02:41:52;;;;;;;40.85;16.55;;;8.20;99.90;;;;;;5112695;28;20042;-74
2021/12/14 02:44:20;;;;;;;42.88;16.42;;;8.20;99.90;;;;;;5108121;28;20036;-74
2021/12/14 02:46:51;;;;;;;44.08;17.10;;;8.30;99.90;;;;;;5094428;28;20147;-74
2021/12/14 02:49:23;;;;;;;44.53;17.00;;;8.20;99.90;;;;;;5111608;28;20475;-73
2021/12/14 02:52:14;;;;;;;42.15;18.67;;;8.30;99.90;;;;;;5078564;28;20097;-74
2021/12/14 02:54:48;;;;;;;41.90;17.08;;;8.30;99.90;;;;;;5085146;28;20048;-75
2021/12/14 02:57:25;;;;;;;42.40;18.30;;;8.20;99.90;;;;;;5113256;28;20047;-74
2021/12/14 02:59:52;;;;;;;42.78;18.08;;;8.30;99.90;;;;;;5089796;28;20048;-74
2021/12/14 03:02:27;;;;;;;44.63;17.52;;;8.30;99.90;;;;;;5096650;28;20525;-75
2021/12/14 03:05:07;;;;;;;47.10;18.67;;;8.20;99.90;;;;;;5116480;28;20043;-74
2021/12/14 03:07:43;;;;;;;46.83;18.90;;;8.20;99.90;;;;;;5115932;28;20471;-75
2021/12/14 03:10:32;;;;;;;44.78;18.35;;;8.20;99.90;;;;;;5115915;28;20120;-74
2021/12/14 03:13:03;;;;;;;46.05;19.00;;;8.20;99.90;;;;;;5115413;28;20051;-73
2021/12/14 03:15:46;;;;;;;46.03;18.42;;;8.20;99.90;;;;;;5097699;28;20070;-73
2021/12/14 03:18:19;;;;;;;45.90;18.92;;;8.20;99.90;;;;;;5132815;27;20109;-73
2021/12/14 03:20:50;;;;;;;47.15;18.75;;;8.20;99.90;;;;;;5097376;28;20040;-73
2021/12/14 03:23:32;;;;;;;49.95;19.42;;;8.20;99.90;;;;;;5115702;28;20104;-75
2021/12/14 03:26:01;;;;;;;47.17;18.77;;;8.20;99.90;;;;;;5081457;28;20043;-76
2021/12/14 03:28:30;;;;;;;53.83;20.90;;;8.20;99.90;;;;;;5115719;28;20040;-74
2021/12/14 03:30:59;;;;;;;53.63;21.63;;;8.20;99.90;;;;;;5115303;28;20062;-76
2021/12/14 03:33:29;;;;;;;49.50;19.40;;;8.20;99.90;;;;;;5097468;28;20067;-77
2021/12/14 03:36:02;;;;;;;49.63;18.95;;;8.20;99.90;;;;;;5097624;28;20044;-75
2021/12/14 03:38:42;;;;;;;52.05;19.92;;;8.20;99.90;;;;;;5097392;28;20062;-74
2021/12/14 03:41:14;;;;;;;50.47;19.00;;;8.20;99.90;;;;;;5097595;28;20047;-75
2021/12/14 03:43:53;;;;;;;48.10;19.52;;;8.20;99.90;;;;;;5116387;28;20044;-74
2021/12/14 03:46:19;;;;;;;49.05;19.63;;;8.20;99.90;;;;;;5114684;28;20101;-75
2021/12/14 03:48:46;;;;;;;56.35;21.38;;;8.20;99.90;;;;;;5080807;28;20094;-75
2021/12/14 03:51:12;;;;;;;55.17;21.20;;;8.20;99.90;;;;;;5115181;28;20450;-74
2021/12/14 03:53:37;;;;;;;50.40;20.15;;;8.20;99.90;;;;;;5097026;28;20046;-75
2021/12/14 03:56:07;;;;;;;50.72;20.80;;;8.20;99.90;;;;;;5080374;28;20051;-75
2021/12/14 03:58:40;;;;;;;52.83;19.77;;;8.10;99.90;;;;;;5097123;28;20126;-74
2021/12/14 04:01:22;;;;;;;52.65;21.17;;;8.20;99.90;;;;;;5116293;28;20035;-74
2021/12/14 04:03:52;;;;;;;54.28;20.02;;;8.20;99.90;;;;;;5097675;28;20055;-75
2021/12/14 04:06:19;;;;;;;54.53;21.08;;;8.10;99.90;;;;;;5098951;28;20043;-74
2021/12/14 04:08:46;;;;;;;52.05;21.52;;;8.10;99.90;;;;;;5085673;28;20047;-73
2021/12/14 04:11:13;;;;;;;55.72;23.60;;;8.20;99.90;;;;;;5119882;28;20047;-74
2021/12/14 04:13:42;;;;;;;56.15;22.10;;;8.20;99.90;;;;;;5099077;28;20079;-75
2021/12/14 04:16:11;;;;;;;55.35;21.23;;;8.20;99.90;;;;;;5099575;28;20104;-74
2021/12/14 04:18:37;;;;;;;57.45;22.58;;;8.10;99.90;;;;;;5099680;28;20082;-74
2021/12/14 04:21:03;;;;;;;54.08;22.52;;;8.10;99.90;;;;;;5099011;28;20517;-74
2021/12/14 04:23:34;;;;;;;55.40;22.08;;;8.10;99.90;;;;;;5115828;28;20488;-76
2021/12/14 04:26:02;;;;;;;58.08;22.58;;;8.10;99.90;;;;;;5118452;28;20089;-77
2021/12/14 04:28:37;;;;;;;57.17;22.95;;;8.10;99.90;;;;;;5100683;28;20046;-78
2021/12/14 04:31:03;;;;;;;56.97;21.95;;;8.10;99.90;;;;;;5116283;28;20529;-75
2021/12/14 04:33:37;;;;;;;60.75;24.55;;;8.10;99.90;;;;;;5080764;28;20487;-77
2021/12/14 04:36:09;;;;;;;53.75;21.67;;;8.10;99.90;;;;;;5101249;28;20075;-74
2021/12/14 04:38:44;;;;;;;60.65;23.92;;;8.10;99.90;;;;;;5133066;27;20092;-75
2021/12/14 04:52:12;;;;;;;55.85;22.83;;;7.90;99.90;;;;;;5095881;28;20052;-75
2021/12/14 04:54:43;;;;;;;54.42;22.17;;;7.80;99.90;;;;;;5113974;28;20039;-75
2021/12/14 04:57:26;;;;;;;62.42;23.73;;;7.80;99.90;;;;;;5114290;28;20036;-74
2021/12/14 04:59:54;;;;;;;61.38;24.42;;;7.80;99.90;;;;;;5078909;28;20584;-74
2021/12/14 05:02:27;;;;;;;64.65;24.20;;;7.70;99.90;;;;;;5096363;28;20124;-74
2021/12/14 05:04:55;;;;;;;61.85;23.33;;;7.70;99.90;;;;;;5096152;28;20082;-74
2021/12/14 05:09:52;;;;;;;61.83;22.95;;;7.70;99.90;;;;;;5113917;28;20448;-75
2021/12/14 05:12:23;;;;;;;;;;;7.80;99.90;;;;;;5113354;28;20131;-74
2021/12/14 05:14:50;;;;;;;59.75;22.55;;;7.70;99.90;;;;;;5129679;27;19931;-74
2021/12/14 05:17:20;;;;;;;64.00;23.52;;;7.70;99.90;;;;;;5095383;28;20050;-74
2021/12/14 05:19:48;;;;;;;60.70;23.48;;;7.70;99.90;;;;;;5095604;28;20084;-74
2021/12/14 05:22:18;;;;;;;63.28;23.25;;;7.80;99.90;;;;;;5062442;28;20403;-75
2021/12/14 05:24:48;;;;;;;64.38;23.25;;;7.80;99.90;;;;;;5113300;28;20043;-74
2021/12/14 05:27:25;;;;;;;60.63;24.52;;;7.80;99.90;;;;;;5129699;27;20464;-76
2021/12/14 05:29:52;;;;;;;62.50;23.98;;;7.90;99.90;;;;;;5114199;28;20043;-74
2021/12/14 05:32:18;;;;;;;67.68;24.23;;;7.90;99.90;;;;;;5095085;28;20060;-73
2021/12/14 05:34:49;;;;;;;59.87;23.33;;;7.90;99.90;;;;;;5078490;28;20079;-74
2021/12/14 05:37:23;;;;;;;61.13;24.83;;;7.90;99.90;;;;;;5112568;28;20297;-74
2021/12/14 05:39:56;;;;;;;66.88;24.85;;;7.90;99.90;;;;;;5095073;28;20055;-74
2021/12/14 05:45:17;;;;;;;66.40;24.75;;;7.90;99.90;;;;;;5114108;28;20058;-75
2021/12/14 05:47:52;;;;;;;;;;;7.90;99.90;;;;;;5095801;28;20084;-74
2021/12/14 05:50:30;;;;;;;65.85;23.90;;;8.00;99.90;;;;;;5112974;28;19920;-76
2021/12/14 05:52:56;;;;;;;67.68;25.40;;;8.00;99.90;;;;;;5113804;28;20035;-75
2021/12/14 05:55:27;;;;;;;67.40;25.80;;;8.00;99.90;;;;;;5112413;28;20399;-75
2021/12/14 05:57:55;;;;;;;66.45;26.45;;;8.00;99.90;;;;;;5094436;28;20549;-74
2021/12/14 06:00:27;;;;;;;72.18;26.13;;;8.00;99.90;;;;;;5113152;28;20446;-75
2021/12/14 06:02:53;;;;;;;70.43;26.10;;;8.00;99.90;;;;;;5113594;28;20040;-75
2021/12/14 06:05:22;;;;;;;65.30;24.50;;;8.00;99.90;;;;;;5129970;28;20055;-75
2021/12/14 06:07:49;;;;;;;65.65;25.70;;;8.00;99.90;;;;;;5095089;28;20484;-75
2021/12/14 06:10:19;;;;;;;69.65;26.17;;;8.00;99.90;;;;;;5112888;28;20550;-75
2021/12/14 06:12:45;;;;;;;70.47;25.85;;;8.00;99.90;;;;;;5078416;28;20169;-75
2021/12/14 06:15:18;;;;;;;71.20;26.92;;;8.00;99.90;;;;;;5095804;28;20439;-74
2021/12/14 06:17:44;;;;;;;72.40;26.45;;;7.90;99.90;;;;;;5062325;28;20109;-74
2021/12/14 06:20:18;;;;;;;67.75;25.35;;;8.00;99.90;;;;;;5113010;28;20507;-75
2021/12/14 06:22:44;;;;;;;70.80;25.77;;;8.00;99.90;;;;;;5113427;28;20404;-75
2021/12/14 06:25:21;;;;;;;72.13;26.77;;;7.90;99.90;;;;;;5060887;28;20136;-74
2021/12/14 06:27:48;;;;;;;71.90;25.30;;;7.90;99.90;;;;;;5109975;28;20122;-74
2021/12/14 06:30:24;;;;;;;82.03;26.63;;;7.90;99.90;;;;;;5095237;28;20059;-75
2021/12/14 06:32:54;;;;;;;79.95;26.52;;;7.90;99.90;;;;;;5094330;28;20093;-73
2021/12/14 06:35:33;;;;;;;79.63;27.52;;;7.90;99.90;;;;;;5112973;28;20151;-75
2021/12/14 06:40:36;;;;;;;81.00;28.33;;;7.90;99.90;;;;;;5099474;28;20043;-75
2021/12/14 06:43:16;;;;;;;83.50;28.05;;;7.90;99.90;;;;;;5098757;28;20364;-75
2021/12/14 06:45:45;;;;;;;81.85;27.88;;;7.90;99.90;;;;;;5117356;28;20098;-74
2021/12/14 06:48:20;;;;;;;80.57;26.85;;;7.90;99.90;;;;;;5117549;28;20079;-75
2021/12/14 06:50:55;;;;;;;81.53;28.75;;;7.90;99.90;;;;;;5081483;28;20371;-74
2021/12/14 06:53:22;;;;;;;83.15;29.35;;;7.90;99.90;;;;;;5110394;28;20047;-73
2021/12/14 06:55:53;;;;;;;86.75;29.55;;;7.90;99.90;;;;;;5098822;28;20043;-74
2021/12/14 06:58:27;;;;;;;92.90;30.50;;;7.90;99.90;;;;;;5098442;28;20046;-74
2021/12/14 07:01:01;;;;;;;84.78;29.10;;;7.90;99.90;;;;;;5082314;28;20048;-73
2021/12/14 07:04:01;;;;;;;84.10;28.00;;;7.90;99.90;;;;;;5098173;28;20051;-74
2021/12/14 07:06:31;;;;;;;81.28;27.65;;;7.90;99.90;;;;;;5072517;28;20052;-73
2021/12/14 07:09:04;;;;;;;85.32;29.60;;;7.90;99.90;;;;;;5133154;27;20160;-73
2021/12/14 07:11:30;;;;;;;82.45;27.63;;;7.90;99.90;;;;;;5097918;28;20075;-75
2021/12/14 07:13:57;;;;;;;90.93;30.02;;;7.90;99.90;;;;;;5081251;28;20148;-73
2021/12/14 07:16:30;;;;;;;;;;;7.90;99.90;;;;;;5132696;27;20043;-73
2021/12/14 07:19:02;;;;;;;83.32;28.58;;;8.00;99.90;;;;;;5098347;28;19927;-75
2021/12/14 07:21:39;;;;;;;85.03;28.27;;;8.00;99.90;;;;;;5116099;28;20134;-74
2021/12/14 07:24:23;;;;;;;83.45;28.60;;;8.00;99.90;;;;;;5116009;28;20051;-74
2021/12/14 07:27:10;;;;;;;88.15;28.90;;;8.00;99.90;;;;;;5097827;28;20400;-74
2021/12/14 07:29:36;;;;;;;86.45;30.48;;;8.00;99.90;;;;;;5097699;28;20124;-74
2021/12/14 07:32:03;;;;;;;88.35;29.45;;;8.00;99.90;;;;;;5097619;28;20078;-73
2021/12/14 07:34:29;;;;;;;85.03;28.63;;;8.10;99.90;;;;;;5064266;28;20108;-74
2021/12/14 07:36:55;;;;;;;84.93;28.90;;;8.00;99.90;;;;;;5081186;28;20044;-74
2021/12/14 07:39:21;;;;;;;86.95;29.42;;;8.10;99.90;;;;;;5115362;28;20051;-74
2021/12/14 07:41:55;;;;;;;90.90;29.85;;;8.10;99.90;;;;;;5097196;28;20061;-75
2021/12/14 07:44:24;;;;;;;87.18;30.33;;;8.10;99.90;;;;;;5098051;28;20048;-74
2021/12/14 07:46:55;;;;;;;85.93;30.38;;;8.10;99.90;;;;;;5114752;28;20059;-75
2021/12/14 07:49:32;;;;;;;90.05;30.20;;;8.10;99.90;;;;;;5115567;28;20073;-74
2021/12/14 07:52:08;;;;;;;90.55;29.85;;;8.10;99.90;;;;;;5114596;28;20052;-74
2021/12/14 07:54:38;;;;;;;91.80;31.60;;;8.10;99.90;;;;;;5097179;28;20090;-75
2021/12/14 07:57:11;;;;;;;88.20;29.50;;;8.10;99.90;;;;;;5096773;28;20087;-73
2021/12/14 07:59:42;;;;;;;85.45;27.52;;;8.10;99.90;;;;;;5115251;28;20391;-73
2021/12/14 08:02:30;;;;;;;88.97;30.20;;;8.10;99.90;;;;;;5131643;27;20044;-74
2021/12/14 08:05:14;;;;;;;90.90;29.20;;;8.10;99.90;;;;;;5115503;28;20047;-74
2021/12/14 08:08:10;;;;;;;86.80;29.13;;;8.10;99.90;;;;;;5115056;28;20063;-73
2021/12/14 08:10:40;;;;;;;87.68;28.60;;;8.10;99.90;;;;;;5117537;28;20107;-74
2021/12/14 08:13:22;;;;;;;90.43;30.30;;;8.10;99.90;;;;;;5081671;28;20086;-74
2021/12/14 08:15:57;;;;;;;86.93;28.95;;;8.10;99.90;;;;;;5116905;28;20052;-76
2021/12/14 08:18:42;;;;;;;83.05;28.55;;;8.10;99.90;;;;;;5117020;28;20055;-75
2021/12/14 08:21:15;;;;;;;94.97;30.55;;;8.10;99.90;;;;;;5115298;28;20097;-73
2021/12/14 08:23:48;;;;;;;85.97;29.50;;;8.10;99.90;;;;;;5115476;28;20047;-74
2021/12/14 08:26:26;;;;;;;85.05;30.17;;;8.20;99.90;;;;;;5101733;28;20047;-74
2021/12/14 08:28:56;;;;;;;93.35;31.17;;;8.20;99.90;;;;;;5122631;28;20048;-74
2021/12/14 08:31:30;;;;;;;85.13;31.00;;;8.20;99.90;;;;;;5125184;28;20082;-73
2021/12/14 08:33:59;;;;;;;88.47;30.73;;;8.30;99.90;;;;;;5122760;28;20051;-73
2021/12/14 08:36:32;;;;;;;82.95;27.63;;;8.30;99.90;;;;;;5102211;28;20046;-74
2021/12/14 08:39:15;;;;;;;80.97;28.98;;;8.30;99.90;;;;;;5131665;27;20121;-72
2021/12/14 08:41:51;;;;;;;76.00;28.77;;;8.40;99.90;;;;;;5100197;28;20048;-73
2021/12/14 08:44:33;;;;;;;83.60;29.30;;;8.40;99.90;;;;;;5097467;28;20051;-74
2021/12/14 08:46:59;;;;;;;79.75;27.65;;;8.40;99.90;;;;;;5096085;28;20080;-73
2021/12/14 08:49:26;;;;;;;82.78;30.35;;;8.50;99.90;;;;;;5096630;28;20310;-75
2021/12/14 08:51:52;;;;;;;;;;;8.50;99.90;;;;;;5062235;28;20055;-78
2021/12/14 08:54:22;;;;;;;79.10;26.33;;;8.50;99.90;;;;;;5094783;28;19920;-75
2021/12/14 08:57:08;;;;;;;83.95;29.05;;;8.50;99.90;;;;;;5077341;28;20166;-74
2021/12/14 08:59:38;;;;;;;78.43;28.45;;;8.50;99.90;;;;;;5076803;28;20146;-74
2021/12/14 09:02:07;;;;;;;78.40;28.48;;;8.50;99.90;;;;;;5093773;28;20077;-73
2021/12/14 09:04:42;;;;;;;80.30;27.85;;;8.60;99.90;;;;;;5077541;28;20044;-73
2021/12/14 09:07:15;;;;;;;77.50;28.52;;;8.60;99.90;;;;;;5094180;28;20043;-75
2021/12/14 09:09:42;;;;;;;74.53;27.27;;;8.60;99.90;;;;;;5094477;28;20051;-73
2021/12/14 09:12:20;;;;;;;80.43;27.88;;;8.60;99.90;;;;;;5092416;28;20044;-74
2021/12/14 09:14:48;;;;;;;76.78;27.50;;;8.60;99.90;;;;;;5075688;28;20399;-74
2021/12/14 09:17:17;;;;;;;80.15;28.02;;;8.60;99.90;;;;;;5092982;28;20437;-74
2021/12/14 09:19:46;;;;;;;77.20;28.55;;;8.60;99.90;;;;;;5092040;28;20066;-74
2021/12/14 09:22:20;;;;;;;76.28;28.80;;;8.60;99.90;;;;;;5092870;28;20080;-74
2021/12/14 09:24:46;;;;;;;81.47;30.02;;;8.60;99.90;;;;;;5093121;28;20499;-74
2021/12/14 09:27:17;;;;;;;76.38;27.27;;;8.60;99.90;;;;;;5093461;28;20531;-74
2021/12/14 09:29:44;;;;;;;79.47;29.35;;;8.60;99.90;;;;;;5075859;28;20048;-73
2021/12/14 09:32:13;;;;;;;77.78;29.48;;;8.70;99.90;;;;;;5093235;28;20139;-74
2021/12/14 09:34:44;;;;;;;74.47;28.55;;;8.70;99.90;;;;;;5076218;28;20150;-75
2021/12/14 09:37:12;;;;;;;73.40;27.50;;;8.60;99.90;;;;;;5074821;28;20135;-75
2021/12/14 09:39:45;;;;;;;76.90;29.35;;;8.70;99.90;;;;;;5089596;28;20056;-75
2021/12/14 09:42:28;;;;;;;76.10;28.63;;;8.60;99.90;;;;;;5091910;28;20051;-74
2021/12/14 09:44:58;;;;;;;79.38;28.25;;;8.60;99.90;;;;;;5075114;28;20048;-73
2021/12/14 09:47:31;;;;;;;81.68;29.05;;;8.70;99.90;;;;;;5091898;28;20050;-75
2021/12/14 09:50:01;;;;;;;;;;;8.70;99.90;;;;;;5092002;28;20051;-75
2021/12/14 09:52:33;;;;;;;74.63;26.17;;;8.70;99.90;;;;;;5092405;28;19920;-73
2021/12/14 09:55:05;;;;;;;79.40;29.48;;;8.70;99.90;;;;;;5092035;28;20051;-75
2021/12/14 09:57:35;;;;;;;73.72;27.40;;;8.70;99.90;;;;;;5092904;28;20549;-74
2021/12/14 10:00:10;;;;;;;74.75;27.33;;;8.70;99.90;;;;;;5074934;28;20056;-73
2021/12/14 10:02:40;;;;;;;71.15;27.42;;;8.70;99.90;;;;;;5092166;28;20384;-74
2021/12/14 10:05:15;;;;;;;72.72;25.77;;;8.70;99.90;;;;;;5091474;28;20055;-74
2021/12/14 10:07:42;;;;;;;73.63;26.40;;;8.80;99.90;;;;;;5093023;28;20527;-74
2021/12/14 10:10:13;;;;;;;81.57;29.15;;;8.90;99.90;;;;;;5092134;28;20127;-74
2021/12/14 10:12:51;;;;;;;74.75;28.42;;;8.80;99.90;;;;;;5095688;28;20361;-75
2021/12/14 10:15:27;;;;;;;74.03;27.40;;;8.90;99.90;;;;;;5079696;28;20451;-74
2021/12/14 10:17:58;;;;;;;73.70;27.85;;;8.90;99.90;;;;;;5080030;28;20040;-73
2021/12/14 10:20:41;;;;;;;81.57;28.08;;;8.90;99.90;;;;;;5096744;28;20046;-74
2021/12/14 10:23:12;;;;;;;74.85;27.50;;;8.90;99.90;;;;;;5097227;28;20052;-74
2021/12/14 10:25:38;;;;;;;78.13;28.35;;;8.90;99.90;;;;;;5079114;28;20059;-74
2021/12/14 10:28:05;;;;;;;74.18;26.40;;;8.90;99.90;;;;;;5078395;28;20040;-74
2021/12/14 10:30:38;;;;;;;67.38;25.90;;;9.00;99.90;;;;;;5062530;28;20077;-74
2021/12/14 10:33:05;;;;;;;69.15;25.58;;;9.00;99.90;;;;;;5079073;28;20052;-74
2021/12/14 10:35:43;;;;;;;78.72;27.38;;;8.90;99.90;;;;;;5078247;28;20553;-74
2021/12/14 10:38:22;;;;;;;73.90;25.55;;;8.90;99.90;;;;;;5095172;28;20040;-74
2021/12/14 10:43:54;;;;;;;71.03;25.45;;;9.00;99.90;;;;;;5076242;28;20116;-74
2021/12/14 10:46:31;;;;;;;57.90;20.17;;;9.00;99.90;;;;;;5075654;28;20048;-74
2021/12/14 10:48:57;;;;;;;68.68;25.05;;;9.00;99.90;;;;;;5075527;28;20053;-74
2021/12/14 10:51:38;;;;;;;73.45;28.10;;;9.00;99.90;;;;;;5041781;28;20131;-75
2021/12/14 10:54:07;;;;;;;74.43;26.00;;;9.00;99.90;;;;;;5075705;28;20125;-73
2021/12/14 10:56:40;;;;;;;71.03;26.85;;;9.00;99.90;;;;;;5074831;28;20067;-74
2021/12/14 10:59:09;;;;;;;77.10;26.83;;;8.90;99.90;;;;;;5074926;28;20128;-75
2021/12/14 11:01:38;;;;;;;74.80;26.73;;;8.80;99.90;;;;;;5075250;28;20488;-73
2021/12/14 11:04:09;;;;;;;83.38;29.50;;;8.80;99.90;;;;;;5074295;28;20492;-75
2021/12/14 11:06:38;;;;;;;81.13;28.25;;;8.80;99.90;;;;;;5074715;28;20045;-74
2021/12/14 11:11:47;;;;;;;90.15;27.90;;;8.70;99.90;;;;;;5074330;28;20059;-74
2021/12/14 11:14:18;;;;;;;80.25;27.20;;;8.80;99.90;;;;;;5057338;28;20358;-73
2021/12/14 11:19:44;;;;;;;84.20;27.77;;;8.80;99.90;;;;;;5076075;28;20063;-73
2021/12/14 11:22:21;;;;;;;88.70;27.42;;;8.70;99.90;;;;;;5074324;28;20054;-73
2021/12/14 11:24:57;;;;;;;85.03;28.45;;;8.70;99.90;;;;;;5075441;28;20158;-74
2021/12/14 11:27:27;;;;;;;94.73;29.87;;;8.80;99.90;;;;;;5058786;28;20044;-72
2021/12/14 11:30:10;;;;;;;99.32;30.35;;;8.70;99.90;;;;;;5075167;28;20492;-75
2021/12/14 11:32:41;;;;;;;95.22;30.20;;;8.80;99.90;;;;;;5075349;28;20087;-75
2021/12/14 11:35:24;;;;;;;105.35;33.03;;;8.70;99.90;;;;;;5074733;28;20053;-73
2021/12/14 11:37:51;;;;;;;94.63;29.77;;;8.80;99.90;;;;;;5058347;28;20063;-74
2021/12/14 11:40:20;;;;;;;87.95;28.58;;;8.80;99.90;;;;;;5087922;28;20109;-74
2021/12/14 11:42:47;;;;;;;93.22;28.10;;;8.80;99.90;;;;;;5095355;28;20075;-73
2021/12/14 11:45:21;;;;;;;105.43;28.27;;;8.70;99.90;;;;;;5077416;28;20101;-74
2021/12/14 11:47:54;;;;;;;95.00;27.67;;;8.80;99.90;;;;;;5095272;28;20044;-74
2021/12/14 11:50:23;;;;;;;93.95;25.83;;;8.80;99.90;;;;;;5094472;28;20434;-75
2021/12/14 11:53:00;;;;;;;85.68;27.08;;;8.70;99.90;;;;;;5095077;28;20047;-74
2021/12/14 11:56:02;;;;;;;90.63;26.65;;;8.80;99.90;;;;;;5077018;28;20043;-74
2021/12/14 11:58:31;;;;;;;93.18;28.92;;;8.80;99.90;;;;;;5095321;28;20051;-73
2021/12/14 12:01:18;;;;;;;97.20;28.05;;;8.80;99.90;;;;;;5094941;28;20044;-74
2021/12/14 12:03:56;;;;;;;94.25;27.08;;;8.80;99.90;;;;;;5093886;28;20543;-74
2021/12/14 12:09:28;;;;;;;82.78;25.58;;;8.80;99.90;;;;;;5094600;28;20519;-73
2021/12/14 12:09:45;;;;;;;86.63;26.15;;;8.80;99.90;;;;;;5095581;28;20389;-72
2021/12/14 12:12:20;;;;;;;80.57;24.60;;;8.90;99.90;;;;;;5083699;28;20059;-70
2021/12/14 12:15:14;;;;;;;84.90;25.30;;;8.80;99.90;;;;;;5084771;28;20113;-73
2021/12/14 12:17:50;;;;;;;74.78;23.92;;;8.90;99.90;;;;;;5088261;28;20063;-73
2021/12/14 12:20:41;;;;;;;70.55;24.75;;;8.90;99.90;;;;;;5096035;28;20143;-73
2021/12/14 12:23:13;;;;;;;75.93;23.70;;;8.90;99.90;;;;;;5084254;28;20056;-75
2021/12/14 12:25:43;;;;;;;69.85;22.00;;;8.90;99.90;;;;;;5100042;28;20036;-74
2021/12/14 12:28:16;;;;;;;74.57;22.08;;;8.90;99.90;;;;;;5096416;28;20084;-72
2021/12/14 12:30:43;;;;;;;67.38;21.88;;;9.00;99.90;;;;;;5097084;28;20048;-72
2021/12/14 12:33:09;;;;;;;63.42;21.92;;;8.90;99.90;;;;;;5095743;28;20059;-72
2021/12/14 12:35:43;;;;;;;62.33;20.98;;;8.90;99.90;;;;;;5097582;28;20040;-71
2021/12/14 12:38:31;;;;;;;66.75;21.27;;;8.90;99.90;;;;;;5099847;28;20044;-73
2021/12/14 12:41:26;;;;;;;54.35;18.38;;;8.90;99.90;;;;;;5118886;28;20055;-76
2021/12/14 12:43:59;;;;;;;59.42;18.13;;;8.90;99.90;;;;;;5099608;28;20221;-75
2021/12/14 12:46:39;;;;;;;58.50;18.50;;;8.90;99.90;;;;;;5099170;28;20046;-74
2021/12/14 12:49:11;;;;;;;57.20;19.40;;;8.90;99.90;;;;;;5133503;27;20075;-74
2021/12/14 12:51:48;;;;;;;54.72;20.10;;;8.90;99.90;;;;;;5115002;27;20054;-73
2021/12/14 12:54:32;;;;;;;51.97;18.05;;;9.00;99.90;;;;;;5115166;28;20060;-73
2021/12/14 12:57:17;;;;;;;55.05;19.40;;;9.00;99.90;;;;;;5131289;27;20364;-76
2021/12/14 13:00:01;;;;;;;49.88;18.27;;;9.00;99.90;;;;;;5114098;28;20086;-72
2021/12/14 13:02:39;;;;;;;50.83;18.35;;;9.00;99.90;;;;;;5116298;28;20412;-73
2021/12/14 13:05:26;;;;;;;58.00;19.80;;;9.00;99.90;;;;;;5097822;28;20055;-73
2021/12/14 13:08:04;;;;;;;57.90;20.02;;;9.00;99.90;;;;;;5098735;28;20049;-73
2021/12/14 13:10:30;;;;;;;58.08;19.95;;;9.00;99.90;;;;;;5117871;28;20122;-73
2021/12/14 13:13:13;;;;;;;61.45;21.05;;;9.00;99.90;;;;;;5082835;28;20089;-74
2021/12/14 13:15:44;;;;;;;60.83;20.35;;;9.00;99.90;;;;;;5099877;28;20130;-74
2021/12/14 13:18:31;;;;;;;57.20;19.98;;;9.00;99.90;;;;;;5118849;28;20055;-74
2021/12/14 13:21:21;;;;;;;62.35;20.23;;;9.10;99.90;;;;;;5118709;28;20474;-75
2021/12/14 13:24:01;;;;;;;62.20;21.05;;;9.00;99.90;;;;;;5116256;28;20044;-72
2021/12/14 13:26:36;;;;;;;60.55;20.80;;;9.10;99.90;;;;;;5097544;28;20044;-74
2021/12/14 13:29:16;;;;;;;66.50;22.10;;;9.10;99.90;;;;;;5114999;28;20070;-73
2021/12/14 13:31:57;;;;;;;65.45;20.98;;;9.10;99.90;;;;;;5113495;28;20052;-74
2021/12/14 13:34:29;;;;;;;67.72;21.35;;;9.10;99.90;;;;;;5114428;28;20039;-74
2021/12/14 13:36:57;;;;;;;70.43;23.13;;;9.10;99.90;;;;;;5114373;28;20046;-73
2021/12/14 13:39:24;;;;;;;67.18;22.15;;;9.10;99.90;;;;;;5129382;27;20173;-74
2021/12/14 13:41:59;;;;;;;70.10;23.15;;;9.10;99.90;;;;;;5096925;28;20420;-73
2021/12/14 13:44:26;;;;;;;70.22;22.48;;;9.10;99.90;;;;;;5096520;28;20050;-73